Time;durP1;ratioP1;P1;durP2;ratioP2;P2;SDS_P1;SDS_P2;PMS_P1;PMS_P2;Temp;Humidity;BMP_temperature;BMP_pressure;BME280_temperature;BME280_humidity;BME280_pressure;Samples;Min_cycle;Max_cycle;Signal;HPM_P1;HPM_P2
2021/04/13 00:01:36;;;;;;;3.17;2.88;;;;;;;;;;4992202;28;20399;-75
2021/04/13 00:04:20;;;;;;;3.65;3.15;;;;;;;;;;5010109;28;20365;-72
2021/04/13 00:06:51;;;;;;;3.80;3.50;;;1.40;99.90;;;;;;5009051;28;20412;-72
2021/04/13 00:09:20;;;;;;;4.18;3.00;;;;;;;;;;5009600;28;20408;-72
2021/04/13 00:11:48;;;;;;;3.67;3.10;;;;;;;;;;5009139;28;20392;-72
2021/04/13 00:14:15;;;;;;;3.35;3.05;;;;;;;;;;5009569;28;20906;-72
2021/04/13 00:16:42;;;;;;;3.13;2.83;;;;;;;;;;5009314;28;20397;-72
2021/04/13 00:19:08;;;;;;;3.03;2.72;;;;;;;;;;5009717;28;20381;-72
2021/04/13 00:21:43;;;;;;;4.72;3.00;;;;;;;;;;5009234;28;20439;-73
2021/04/13 00:24:15;;;;;;;3.00;2.70;;;;;;;;;;4992477;28;20485;-72
2021/04/13 00:26:46;;;;;;;4.95;3.58;;;;;;;;;;4991407;28;20395;-72
2021/04/13 00:29:19;;;;;;;4.10;3.30;;;;;;;;;;5009870;28;20381;-72
2021/04/13 00:31:48;;;;;;;4.03;3.63;;;;;;;;;;4991358;28;20380;-72
2021/04/13 00:34:24;;;;;;;3.30;3.00;;;;;;;;;;5009790;28;20412;-72
2021/04/13 00:36:55;;;;;;;7.05;3.45;;;;;;;;;;5009009;28;20403;-72
2021/04/13 00:39:26;;;;;;;3.33;3.03;;;;;;;;;;5009636;28;20385;-72
2021/04/13 00:41:54;;;;;;;4.40;3.80;;;;;;;;;;5008384;28;20504;-72
2021/04/13 00:44:21;;;;;;;3.63;3.25;;;;;;;;;;4992085;28;20877;-71
2021/04/13 00:46:59;;;;;;;4.00;3.33;;;;;;;;;;5008915;28;20377;-73
2021/04/13 00:49:27;;;;;;;4.60;3.17;;;;;;;;;;5010322;28;20385;-73
2021/04/13 00:51:55;;;;;;;4.15;3.00;;;;;;;;;;5012703;28;20515;-73
2021/04/13 00:54:37;;;;;;;5.70;3.20;;;;;;;;;;5013292;28;20377;-74
2021/04/13 00:57:04;;;;;;;3.60;3.30;;;;;;;;;;5013226;28;20883;-73
2021/04/13 00:59:31;;;;;;;3.20;2.80;;;;;;;;;;5012887;28;20480;-72
2021/04/13 01:02:02;;;;;;;3.50;2.80;;;;;;;;;;4994691;28;21011;-72
2021/04/13 01:04:30;;;;;;;3.80;3.20;;;;;;;;;;5013504;28;20483;-72
2021/04/13 01:07:01;;;;;;;3.42;2.90;;;;;;;;;;5012262;28;20388;-74
2021/04/13 01:09:28;;;;;;;4.03;3.35;;;;;;;;;;5012912;28;20389;-72
2021/04/13 01:11:57;;;;;;;3.10;2.80;;;;;;;;;;5012413;28;20385;-72
2021/04/13 01:14:26;;;;;;;4.57;3.08;;;;;;;;;;5012946;28;20381;-72
2021/04/13 01:17:14;;;;;;;3.63;2.90;;;;;;;;;;5012267;28;20389;-71
2021/04/13 01:20:10;;;;;;;3.40;2.90;;;;;;;;;;5012143;28;20412;-72
2021/04/13 01:22:44;;;;;;;3.70;3.13;;;;;;;;;;4925933;28;20393;-73
2021/04/13 01:25:17;;;;;;;3.35;2.97;;;;;;;;;;5012642;28;20798;-72
2021/04/13 01:27:51;;;;;;;3.15;2.85;;;;;;;;;;5011959;28;20745;-72
2021/04/13 01:30:18;;;;;;;3.33;3.03;;;;;;;;;;5012461;28;20448;-72
2021/04/13 01:32:45;;;;;;;5.90;3.20;;;;;;;;;;5011873;28;20383;-71
2021/04/13 01:35:14;;;;;;;4.10;2.60;;;;;;;;;;5012093;28;20454;-72
2021/04/13 01:37:56;;;;;;;3.13;2.72;;;;;;;;;;5011766;28;20407;-72
2021/04/13 01:40:30;;;;;;;3.90;2.90;;;;;;;;;;5012492;28;20463;-72
2021/04/13 01:42:58;;;;;;;2.95;2.50;;;;;;;;;;5011704;28;20399;-72
2021/04/13 01:45:28;;;;;;;4.72;2.83;;;;;;;;;;5012293;28;20377;-72
2021/04/13 01:47:56;;;;;;;3.67;3.20;;;;;;;;;;5011338;28;20381;-72
2021/04/13 01:50:31;;;;;;;5.28;3.80;;;;;;;;;;5012440;28;20377;-72
2021/04/13 01:53:01;;;;;;;3.95;3.20;;;;;;;;;;5011679;28;20467;-72
2021/04/13 01:55:29;;;;;;;3.77;3.30;;;;;;;;;;5011901;28;20408;-72
2021/04/13 01:58:07;;;;;;;4.28;3.05;;;;;;;;;;5011400;28;20388;-72
2021/04/13 02:00:43;;;;;;;3.83;3.30;;;;;;;;;;4991952;28;20800;-72
2021/04/13 02:03:09;;;;;;;3.78;2.70;;;;;;;;;;4992726;28;20471;-72
2021/04/13 02:05:38;;;;;;;3.35;2.88;;;;;;;;;;4992768;28;20478;-72
2021/04/13 02:08:27;;;;;;;3.10;2.80;;;1.00;99.90;;;;;;4991899;28;20402;-72
2021/04/13 02:10:58;;;;;;;5.10;3.28;;;;;;;;;;4991200;28;20402;-72
2021/04/13 02:13:34;;;;;;;4.22;3.08;;;;;;;;;;4992120;28;20378;-72
2021/04/13 02:16:10;;;;;;;3.78;3.20;;;;;;;;;;4974071;28;20410;-71
2021/04/13 02:18:38;;;;;;;4.40;3.20;;;;;;;;;;4992185;28;20482;-72
2021/04/13 02:21:09;;;;;;;4.50;2.97;;;;;;;;;;4991919;28;20458;-71
2021/04/13 02:23:36;;;;;;;4.10;3.30;;;;;;;;;;4992017;28;20512;-72
2021/04/13 02:26:05;;;;;;;4.03;3.33;;;;;;;;;;4973927;28;20386;-72
2021/04/13 02:28:36;;;;;;;3.43;2.80;;;;;;;;;;4992301;28;20478;-72
2021/04/13 02:31:06;;;;;;;4.10;2.75;;;;;;;;;;4991165;28;20394;-72
2021/04/13 02:33:34;;;;;;;3.03;2.63;;;;;;;;;;4992112;28;20410;-72
2021/04/13 02:36:08;;;;;;;3.40;2.80;;;;;;;;;;4973607;28;21021;-72
2021/04/13 02:38:37;;;;;;;3.70;3.10;;;;;;;;;;4992114;28;20473;-72
2021/04/13 02:41:18;;;;;;;3.40;3.00;;;0.90;99.90;;;;;;4990403;28;20402;-72
2021/04/13 02:43:47;;;;;;;5.43;3.30;;;;;;;;;;4991606;28;20524;-72
2021/04/13 02:46:28;;;;;;;4.03;2.97;;;1.40;99.90;;;;;;4973953;28;20473;-72
2021/04/13 02:49:00;;;;;;;3.43;3.07;;;;;;;;;;4991162;28;20386;-72
2021/04/13 02:51:27;;;;;;;3.92;3.35;;;;;;;;;;4991747;28;20386;-72
2021/04/13 02:54:01;;;;;;;3.60;2.80;;;;;;;;;;4991182;28;20465;-72
2021/04/13 02:57:07;;;;;;;;;;;;;;;;;;;;;
2021/04/13 02:59:36;;;;;;;4.53;2.97;;;;;;;;;;4997367;28;20397;-72
2021/04/13 03:02:34;;;;;;;4.37;3.10;;;;;;;;;;4992265;28;20470;-73
2021/04/13 03:05:01;;;;;;;3.38;2.90;;;;;;;;;;4949898;28;21283;-73
2021/04/13 03:07:28;;;;;;;3.70;2.90;;;;;;;;;;5010821;28;20407;-73
2021/04/13 03:09:55;;;;;;;4.00;3.13;;;;;;;;;;4992355;28;20408;-73
2021/04/13 03:12:21;;;;;;;3.83;2.83;;;;;;;;;;5010436;28;20381;-73
2021/04/13 03:14:56;;;;;;;3.50;2.83;;;;;;;;;;4992534;28;20400;-73
2021/04/13 03:17:24;;;;;;;4.05;2.83;;;;;;;;;;4993380;28;20401;-73
2021/04/13 03:19:52;;;;;;;4.55;3.85;;;;;;;;;;5009694;28;20377;-74
2021/04/13 03:22:19;;;;;;;3.40;2.80;;;;;;;;;;5010339;28;20730;-73
2021/04/13 03:24:47;;;;;;;4.60;2.80;;;;;;;;;;5010151;28;20862;-74
2021/04/13 03:27:15;;;;;;;3.10;2.80;;;;;;;;;;5010227;28;20435;-73
2021/04/13 03:29:44;;;;;;;3.85;3.45;;;;;;;;;;5010366;28;20412;-73
2021/04/13 03:32:11;;;;;;;3.83;3.30;;;;;;;;;;5010067;28;20408;-73
2021/04/13 03:34:44;;;;;;;3.42;3.10;;;;;;;;;;5010672;28;20515;-73
2021/04/13 03:37:11;;;;;;;3.70;3.30;;;;;;;;;;5010151;28;20424;-74
2021/04/13 03:39:40;;;;;;;3.40;3.10;;;;;;;;;;5010068;28;20749;-73
2021/04/13 03:42:06;;;;;;;3.50;3.20;;;;;;;;;;4991599;28;20416;-73
2021/04/13 03:44:33;;;;;;;3.17;2.75;;;;;;;;;;5010089;28;20380;-73
2021/04/13 03:46:59;;;;;;;3.80;2.90;;;;;;;;;;5009200;28;20459;-73
2021/04/13 03:49:36;;;;;;;5.97;3.05;;;1.80;99.90;;;;;;5010204;28;20384;-73
2021/04/13 03:52:22;;;;;;;4.38;3.40;;;;;;;;;;5009864;28;20385;-73
2021/04/13 03:54:49;;;;;;;4.18;2.88;;;;;;;;;;4991748;28;20490;-73
2021/04/13 03:57:27;;;;;;;3.63;2.83;;;;;;;;;;5010185;28;20385;-73
2021/04/13 03:59:55;;;;;;;3.67;2.97;;;;;;;;;;4991591;28;20373;-73
2021/04/13 04:02:21;;;;;;;3.90;3.20;;;;;;;;;;5010068;28;20412;-73
2021/04/13 04:04:47;;;;;;;5.07;2.90;;;;;;;;;;5009598;28;20784;-74
2021/04/13 04:07:20;;;;;;;2.90;2.60;;;;;;;;;;5010183;28;20411;-74
2021/04/13 04:09:47;;;;;;;3.70;3.22;;;;;;;;;;5009650;28;20404;-74
2021/04/13 04:12:18;;;;;;;4.07;2.58;;;;;;;;;;5010076;28;20416;-73
2021/04/13 04:14:55;;;;;;;3.38;2.70;;;;;;;;;;5010183;28;20385;-72
2021/04/13 04:17:21;;;;;;;3.20;2.88;;;;;;;;;;5010134;28;20400;-73
2021/04/13 04:19:55;;;;;;;3.17;2.80;;;;;;;;;;5008399;28;20400;-74
2021/04/13 04:22:23;;;;;;;4.30;3.20;;;;;;;;;;5002154;28;20376;-73
2021/04/13 04:24:49;;;;;;;3.40;3.10;;;;;;;;;;5012284;28;20476;-74
2021/04/13 04:27:15;;;;;;;3.10;2.55;;;;;;;;;;5015104;28;20393;-73
2021/04/13 04:29:43;;;;;;;3.50;2.70;;;;;;;;;;5020172;28;20380;-73
2021/04/13 04:32:14;;;;;;;3.30;2.63;;;;;;;;;;5019658;28;20826;-73
2021/04/13 04:34:43;;;;;;;4.85;2.20;;;;;;;;;;5018182;28;20393;-74
2021/04/13 04:37:25;;;;;;;2.60;2.28;;;;;;;;;;5020429;28;20861;-73
2021/04/13 04:40:10;;;;;;;2.42;2.22;;;;;;;;;;5015131;28;20412;-75
2021/04/13 04:42:37;;;;;;;3.25;2.95;;;;;;;;;;5006248;28;20418;-73
2021/04/13 04:45:22;;;;;;;4.20;2.70;;;;;;;;;;5014276;28;20782;-73
2021/04/13 04:47:49;;;;;;;4.22;2.80;;;;;;;;;;5011902;28;20418;-74
2021/04/13 04:50:19;;;;;;;3.00;2.70;;;2.10;99.90;;;;;;5007233;28;20381;-73
2021/04/13 04:52:45;;;;;;;3.90;2.67;;;;;;;;;;5009869;28;20449;-73
2021/04/13 04:55:12;;;;;;;3.30;3.00;;;;;;;;;;5013450;28;20482;-74
2021/04/13 04:57:38;;;;;;;3.50;3.20;;;;;;;;;;5010635;28;20487;-73
2021/04/13 05:00:06;;;;;;;3.50;3.20;;;;;;;;;;5006785;28;20395;-74
2021/04/13 05:02:33;;;;;;;4.45;3.15;;;;;;;;;;5008768;28;20385;-73
2021/04/13 05:04:59;;;;;;;3.55;3.25;;;;;;;;;;4991059;28;20900;-73
2021/04/13 05:07:25;;;;;;;3.70;2.92;;;;;;;;;;5012107;28;20393;-73
2021/04/13 05:09:51;;;;;;;3.75;3.10;;;;;;;;;;5012069;28;20388;-73
2021/04/13 05:12:17;;;;;;;3.10;2.80;;;;;;;;;;5011294;28;20789;-73
2021/04/13 05:14:43;;;;;;;3.80;3.50;;;;;;;;;;5011041;28;20389;-73
2021/04/13 05:17:09;;;;;;;3.07;2.67;;;;;;;;;;5011194;28;20460;-73
2021/04/13 05:19:56;;;;;;;3.97;2.90;;;;;;;;;;4994414;28;20385;-73
2021/04/13 05:22:22;;;;;;;4.70;3.10;;;;;;;;;;5011420;28;20404;-74
2021/04/13 05:24:48;;;;;;;4.72;3.22;;;;;;;;;;5011792;28;20381;-73
2021/04/13 05:27:14;;;;;;;4.13;3.70;;;;;;;;;;5010775;28;20717;-73
2021/04/13 05:29:40;;;;;;;4.70;3.42;;;;;;;;;;5011679;28;20408;-73
2021/04/13 05:32:06;;;;;;;3.70;3.37;;;;;;;;;;5011006;28;20428;-73
2021/04/13 05:34:32;;;;;;;5.40;3.47;;;;;;;;;;5011114;28;20468;-73
2021/04/13 05:36:58;;;;;;;3.78;3.38;;;;;;;;;;5010380;28;20468;-74
2021/04/13 05:39:25;;;;;;;4.85;3.35;;;;;;;;;;5011421;28;20393;-72
2021/04/13 05:41:52;;;;;;;2.67;2.47;;;;;;;;;;5010988;28;20882;-74
2021/04/13 05:44:21;;;;;;;4.97;3.00;;;;;;;;;;5011165;28;20369;-75
2021/04/13 05:46:47;;;;;;;4.32;3.03;;;;;;;;;;5012236;28;20421;-75
2021/04/13 05:49:13;;;;;;;3.88;2.70;;;;;;;;;;5011630;28;20953;-73
2021/04/13 05:51:39;;;;;;;3.40;2.90;;;;;;;;;;5012092;28;20380;-73
2021/04/13 05:54:05;;;;;;;3.35;2.92;;;;;;;;;;5011412;28;20377;-73
2021/04/13 05:56:36;;;;;;;3.58;3.10;;;;;;;;;;5011761;28;20852;-75
2021/04/13 05:59:03;;;;;;;4.30;3.30;;;;;;;;;;5011915;28;20484;-74
2021/04/13 06:01:30;;;;;;;3.53;3.22;;;;;;;;;;5012778;28;20373;-73
2021/04/13 06:03:56;;;;;;;3.55;2.72;;;;;;;;;;5011545;28;20392;-73
2021/04/13 06:06:22;;;;;;;4.10;3.28;;;;;;;;;;4995422;28;20384;-73
2021/04/13 06:08:49;;;;;;;4.15;3.50;;;;;;;;;;4994746;28;20387;-73
2021/04/13 06:11:19;;;;;;;4.07;3.10;;;;;;;;;;5010468;28;20549;-73
2021/04/13 06:13:47;;;;;;;4.43;3.10;;;;;;;;;;5009523;28;20631;-73
2021/04/13 06:16:15;;;;;;;3.70;3.20;;;;;;;;;;5003800;28;20411;-73
2021/04/13 06:18:41;;;;;;;3.83;3.40;;;;;;;;;;5011598;28;20390;-75
2021/04/13 06:21:07;;;;;;;6.33;3.40;;;;;;;;;;5008152;28;21356;-76
2021/04/13 06:23:33;;;;;;;3.90;3.50;;;;;;;;;;5008821;28;20698;-75
2021/04/13 06:26:00;;;;;;;4.20;3.15;;;;;;;;;;5008905;28;20431;-74
2021/04/13 06:28:27;;;;;;;3.30;3.00;;;;;;;;;;5008747;28;20431;-74
2021/04/13 06:30:53;;;;;;;3.45;3.00;;;;;;;;;;5009466;28;21463;-75
2021/04/13 06:33:20;;;;;;;4.40;3.13;;;;;;;;;;5009273;28;20380;-75
2021/04/13 06:35:46;;;;;;;3.80;3.10;;;;;;;;;;5006551;28;20915;-75
2021/04/13 06:38:17;;;;;;;3.85;3.10;;;;;;;;;;5007589;28;20401;-75
2021/04/13 06:40:50;;;;;;;3.10;2.80;;;;;;;;;;4990960;28;20461;-75
2021/04/13 06:43:18;;;;;;;3.47;3.17;;;;;;;;;;5010966;28;20389;-74
2021/04/13 06:46:03;;;;;;;4.60;3.35;;;;;;;;;;5011657;28;20400;-75
2021/04/13 06:48:56;;;;;;;4.40;3.50;;;4.50;99.90;;;;;;5008441;28;20402;-75
2021/04/13 06:51:40;;;;;;;5.88;3.10;;;;;;;;;;5011837;28;20392;-72
2021/04/13 06:54:11;;;;;;;4.20;3.47;;;;;;;;;;5009269;28;20412;-73
2021/04/13 06:56:37;;;;;;;3.35;3.05;;;;;;;;;;5007039;28;20406;-75
2021/04/13 06:59:09;;;;;;;4.38;3.50;;;;;;;;;;5009246;28;20457;-74
2021/04/13 07:01:35;;;;;;;5.43;3.30;;;;;;;;;;5011185;28;20418;-72
2021/04/13 07:04:11;;;;;;;4.40;3.80;;;;;;;;;;5010977;28;20416;-72
2021/04/13 07:06:43;;;;;;;3.90;2.90;;;;;;;;;;4989010;28;20522;-73
2021/04/13 07:09:09;;;;;;;4.82;3.40;;;;;;;;;;5009236;28;20372;-74
2021/04/13 07:11:38;;;;;;;3.17;2.88;;;;;;;;;;5010567;28;20483;-75
2021/04/13 07:14:16;;;;;;;3.50;3.20;;;;;;;;;;5010951;28;20379;-74
2021/04/13 07:16:45;;;;;;;3.55;3.25;;;;;;;;;;5009051;28;20448;-75
2021/04/13 07:19:11;;;;;;;3.08;2.78;;;;;;;;;;5010315;28;20393;-76
2021/04/13 07:21:37;;;;;;;4.50;3.50;;;;;;;;;;4990565;28;20389;-75
2021/04/13 07:24:24;;;;;;;4.43;3.53;;;;;;;;;;5008579;28;20881;-76
2021/04/13 07:27:06;;;;;;;4.90;2.60;;;;;;;;;;4965308;28;20402;-75
2021/04/13 07:29:52;;;;;;;3.20;2.90;;;;;;;;;;4997358;28;20435;-76
2021/04/13 07:32:20;;;;;;;2.97;2.72;;;;;;;;;;5000931;28;20420;-75
2021/04/13 07:34:47;;;;;;;3.72;3.10;;;;;;;;;;5005737;28;20417;-75
2021/04/13 07:37:21;;;;;;;3.83;2.90;;;;;;;;;;5002886;28;20392;-74
2021/04/13 07:39:49;;;;;;;3.22;2.92;;;;;;;;;;5010377;28;20408;-76
2021/04/13 07:42:26;;;;;;;2.90;2.60;;;;;;;;;;5007201;28;20417;-74
2021/04/13 07:45:01;;;;;;;3.20;2.80;;;;;;;;;;5008678;28;20428;-74
2021/04/13 07:47:39;;;;;;;2.60;2.40;;;4.60;99.90;;;;;;5003269;28;20455;-74
2021/04/13 07:50:05;;;;;;;3.50;3.05;;;;;;;;;;5008028;28;20924;-73
2021/04/13 07:52:46;;;;;;;3.80;3.40;;;;;;;;;;5010522;28;20380;-74
2021/04/13 07:55:15;;;;;;;4.53;3.30;;;;;;;;;;5008198;28;20451;-75
2021/04/13 07:57:46;;;;;;;3.17;2.88;;;;;;;;;;4986686;28;21622;-74
2021/04/13 08:00:15;;;;;;;3.93;3.50;;;;;;;;;;5010594;28;20404;-73
2021/04/13 08:02:43;;;;;;;3.90;3.10;;;;;;;;;;5008082;28;20839;-74
2021/04/13 08:05:11;;;;;;;3.55;3.25;;;;;;;;;;5006242;28;20478;-72
2021/04/13 08:07:39;;;;;;;3.95;3.42;;;;;;;;;;5004775;28;20494;-74
2021/04/13 08:10:17;;;;;;;4.07;3.58;;;;;;;;;;4999883;28;20383;-72
2021/04/13 08:12:49;;;;;;;3.90;3.50;;;;;;;;;;4988522;28;20442;-71
2021/04/13 08:15:17;;;;;;;3.85;3.45;;;;;;;;;;5003885;28;20449;-73
2021/04/13 08:17:59;;;;;;;4.40;3.85;;;;;;;;;;5005955;28;20931;-74
2021/04/13 08:20:30;;;;;;;6.10;3.63;;;;;;;;;;5006974;28;20389;-72
2021/04/13 08:23:00;;;;;;;4.40;4.00;;;;;;;;;;5007113;28;20381;-72
2021/04/13 08:25:31;;;;;;;4.70;3.60;;;;;;;;;;4987762;28;20525;-71
2021/04/13 08:28:12;;;;;;;5.43;3.90;;;;;;;;;;5009060;28;20390;-72
2021/04/13 08:30:58;;;;;;;5.88;3.65;;;;;;;;;;5007544;28;20813;-73
2021/04/13 08:33:32;;;;;;;5.78;3.97;;;5.30;99.90;;;;;;5008084;28;20390;-71
2021/04/13 08:36:16;;;;;;;3.90;3.50;;;;;;;;;;5006020;28;20850;-72
2021/04/13 08:38:52;;;;;;;4.38;3.90;;;;;;;;;;5003945;28;21601;-72
2021/04/13 08:41:18;;;;;;;4.20;3.80;;;;;;;;;;5006935;28;20419;-72
2021/04/13 08:43:51;;;;;;;4.00;3.60;;;;;;;;;;5008534;28;20377;-71
2021/04/13 08:46:27;;;;;;;4.22;3.65;;;;;;;;;;5004388;28;20502;-72
2021/04/13 08:49:01;;;;;;;4.20;3.80;;;;;;;;;;5007629;28;20389;-71
2021/04/13 08:51:38;;;;;;;4.10;3.35;;;;;;;;;;5004913;28;20399;-72
2021/04/13 08:54:15;;;;;;;5.15;4.20;;;;;;;;;;5010006;28;20371;-75
2021/04/13 08:56:52;;;;;;;4.50;3.97;;;;;;;;;;5004052;28;20423;-70
2021/04/13 08:59:32;;;;;;;4.68;3.50;;;;;;;;;;4996389;28;20397;-73
2021/04/13 09:02:09;;;;;;;4.47;4.07;;;;;;;;;;5004615;28;20435;-72
2021/04/13 09:04:36;;;;;;;4.30;3.90;;;;;;;;;;4990246;28;20803;-72
2021/04/13 09:07:05;;;;;;;5.32;3.60;;;;;;;;;;5005327;28;20397;-73
2021/04/13 09:09:41;;;;;;;4.43;3.97;;;;;;;;;;5006579;28;20399;-72
2021/04/13 09:12:19;;;;;;;4.30;3.90;;;;;;;;;;5008554;28;20418;-73
2021/04/13 09:15:00;;;;;;;4.25;3.85;;;;;;;;;;4996201;28;20671;-72
2021/04/13 09:17:40;;;;;;;4.53;4.20;;;;;;;;;;5008397;28;20393;-74
2021/04/13 09:20:24;;;;;;;4.40;4.00;;;;;;;;;;5011710;28;20384;-71
2021/04/13 09:22:50;;;;;;;4.40;4.00;;;;;;;;;;5012650;28;20421;-72
2021/04/13 09:25:35;;;;;;;4.88;4.32;;;;;;;;;;5007316;28;20401;-72
2021/04/13 09:28:01;;;;;;;7.82;5.30;;;;;;;;;;5009517;28;20381;-73
2021/04/13 09:30:30;;;;;;;5.10;4.60;;;;;;;;;;5008289;28;20391;-71
2021/04/13 09:33:07;;;;;;;6.60;4.70;;;;;;;;;;5012109;28;20445;-72
2021/04/13 09:35:36;;;;;;;5.28;4.72;;;;;;;;;;5008472;28;20420;-72
2021/04/13 09:38:20;;;;;;;4.78;4.35;;;;;;;;;;5008642;28;20434;-74
2021/04/13 09:41:01;;;;;;;4.95;4.20;;;;;;;;;;5008884;28;20444;-74
2021/04/13 09:43:45;;;;;;;5.10;4.60;;;;;;;;;;5007490;28;20399;-70
2021/04/13 09:46:30;;;;;;;5.00;4.60;;;;;;;;;;5005955;28;20391;-71
2021/04/13 09:49:13;;;;;;;4.85;4.30;;;;;;;;;;5007822;28;20406;-71
2021/04/13 09:51:58;;;;;;;6.10;5.03;;;;;;;;;;5007589;28;20389;-72
2021/04/13 09:54:30;;;;;;;4.90;4.50;;;;;;;;;;5001223;28;20665;-73
2021/04/13 09:57:16;;;;;;;5.53;4.13;;;7.30;99.90;;;;;;5008437;28;20807;-72
2021/04/13 09:59:42;;;;;;;4.82;3.50;;;;;;;;;;5013672;28;20400;-71
2021/04/13 10:02:45;;;;;;;5.07;4.28;;;7.00;99.90;;;;;;5007542;28;20385;-75
2021/04/13 10:05:14;;;;;;;4.30;3.80;;;;;;;;;;5008977;28;20401;-73
2021/04/13 10:08:01;;;;;;;3.50;3.17;;;;;;;;;;5007042;28;20389;-74
2021/04/13 10:10:37;;;;;;;3.80;3.40;;;;;;;;;;5007503;28;20482;-74
2021/04/13 10:13:03;;;;;;;4.88;3.63;;;;;;;;;;5010082;28;20382;-75
2021/04/13 10:15:32;;;;;;;2.70;2.10;;;;;;;;;;5007522;28;20429;-74
2021/04/13 10:18:43;;;;;;;1.90;1.80;;;6.60;99.90;;;;;;5007158;28;20391;-75
2021/04/13 10:21:35;;;;;;;2.30;2.10;;;7.20;99.90;;;;;;4976183;28;20402;-74
2021/04/13 10:24:13;;;;;;;2.42;2.22;;;;;;;;;;5010402;28;20391;-74
2021/04/13 10:26:42;;;;;;;2.38;1.80;;;;;;;;;;5006088;28;20926;-72
2021/04/13 10:29:21;;;;;;;3.00;1.90;;;;;;;;;;5010411;28;20431;-74
2021/04/13 10:32:05;;;;;;;2.08;1.83;;;8.00;99.90;;;;;;5012804;28;20395;-73
2021/04/13 10:34:46;;;;;;;1.88;1.70;;;;;;;;;;5009668;28;20379;-73
2021/04/13 10:37:50;;;;;;;6.15;2.58;;;8.60;99.90;;;;;;5004446;28;20407;-73
2021/04/13 10:40:40;;;;;;;2.50;2.30;;;6.90;99.90;;;;;;5009512;28;20400;-73
2021/04/13 10:43:36;;;;;;;3.40;2.70;;;7.40;99.90;;;;;;4990191;28;20491;-75
2021/04/13 10:46:07;;;;;;;2.50;2.15;;;;;;;;;;4967226;28;20913;-73
2021/04/13 10:48:54;;;;;;;2.80;2.35;;;;;;;;;;4987587;28;20385;-74
2021/04/13 10:51:47;;;;;;;3.03;2.80;;;6.90;99.90;;;;;;4980539;28;20415;-74
2021/04/13 10:54:13;;;;;;;2.75;2.25;;;;;;;;;;4987537;28;20832;-74
2021/04/13 10:56:39;;;;;;;2.53;2.33;;;;;;;;;;4967616;28;20457;-73
2021/04/13 10:59:45;;;;;;;2.60;2.08;;;7.90;99.90;;;;;;4986720;28;20712;-75
2021/04/13 11:02:14;;;;;;;2.30;2.03;;;;;;;;;;4989310;28;20476;-73
2021/04/13 11:04:50;;;;;;;1.60;1.50;;;;;;;;;;4985487;28;20397;-74
2021/04/13 11:07:31;;;;;;;2.00;1.80;;;;;;;;;;4985564;28;20385;-74
2021/04/13 11:10:41;;;;;;;2.03;1.65;;;7.70;99.90;;;;;;4987773;28;20398;-74
2021/04/13 11:13:17;;;;;;;1.70;1.60;;;;;;;;;;4928220;29;20459;-74
2021/04/13 11:15:43;;;;;;;2.67;2.20;;;;;;;;;;4925368;29;20916;-74
2021/04/13 11:18:19;;;;;;;2.55;2.30;;;;;;;;;;4957991;28;20537;-75
2021/04/13 11:20:45;;;;;;;2.30;2.10;;;;;;;;;;4987889;28;20410;-75
2021/04/13 11:24:02;;;;;;;3.88;2.20;;;6.90;99.90;;;;;;4989267;28;20815;-75
2021/04/13 11:26:54;;;;;;;2.70;1.90;;;6.10;99.90;;;;;;4956281;28;20936;-76
2021/04/13 11:29:38;;;;;;;4.22;2.67;;;;;;;;;;4948437;28;20863;-75
2021/04/13 11:32:27;;;;;;;2.30;2.10;;;;;;;;;;4989068;28;20484;-74
2021/04/13 11:34:55;;;;;;;3.00;2.70;;;;;;;;;;4982659;28;20390;-75
2021/04/13 11:38:01;;;;;;;4.25;2.80;;;5.40;99.90;;;;;;4969042;28;20886;-74
2021/04/13 11:40:46;;;;;;;3.90;3.08;;;;;;;;;;4963210;28;21019;-75
2021/04/13 11:43:17;;;;;;;4.18;3.20;;;5.70;99.90;;;;;;4990239;28;20889;-74
2021/04/13 11:46:06;;;;;;;4.13;3.40;;;;;;;;;;5003059;28;20506;-75
2021/04/13 11:48:52;;;;;;;2.85;2.45;;;;;;;;;;4989459;28;20405;-74
2021/04/13 11:51:38;;;;;;;2.80;2.60;;;;;;;;;;5006494;28;20385;-74
2021/04/13 11:54:45;;;;;;;2.70;2.20;;;6.10;99.90;;;;;;5007016;28;20386;-76
2021/04/13 11:57:19;;;;;;;2.95;2.65;;;;;;;;;;4999733;28;20408;-72
2021/04/13 12:00:10;;;;;;;2.17;2.00;;;6.40;99.90;;;;;;4992300;28;20400;-72
2021/04/13 12:02:41;;;;;;;3.17;2.25;;;;;;;;;;4986533;28;20962;-75
2021/04/13 12:05:23;;;;;;;2.28;2.08;;;;;;;;;;4997184;28;20381;-75
2021/04/13 12:07:50;;;;;;;2.38;2.17;;;;;;;;;;4997297;28;20434;-74
2021/04/13 12:10:32;;;;;;;2.70;2.50;;;;;;;;;;5004537;28;20396;-74
2021/04/13 12:13:03;;;;;;;3.20;2.60;;;;;;;;;;4997985;28;20916;-73
2021/04/13 12:15:35;;;;;;;2.10;1.80;;;;;;;;;;4995177;28;20928;-73
2021/04/13 12:18:38;;;;;;;2.33;2.13;;;7.10;99.90;;;;;;4996886;28;20426;-73
2021/04/13 12:21:23;;;;;;;2.50;2.30;;;;;;;;;;5000472;28;20391;-73
2021/04/13 12:23:53;;;;;;;2.30;2.10;;;;;;;;;;5005784;28;20474;-73
2021/04/13 12:26:31;;;;;;;2.55;2.35;;;;;;;;;;5001946;28;20391;-74
2021/04/13 12:28:58;;;;;;;3.30;2.40;;;;;;;;;;5004196;28;20428;-74
2021/04/13 12:31:25;;;;;;;2.72;2.20;;;;;;;;;;5003864;28;20373;-74
2021/04/13 12:33:51;;;;;;;2.20;2.00;;;;;;;;;;5000730;28;20483;-73
2021/04/13 12:36:35;;;;;;;2.70;1.90;;;;;;;;;;4991749;28;20402;-74
2021/04/13 12:39:03;;;;;;;2.45;1.80;;;;;;;;;;5007467;28;20388;-74
2021/04/13 12:41:35;;;;;;;2.10;1.90;;;9.30;99.90;;;;;;4987212;28;20792;-75
2021/04/13 12:44:18;;;;;;;1.90;1.67;;;10.30;99.90;;;;;;5002910;28;20403;-75
2021/04/13 12:46:46;;;;;;;2.10;1.60;;;;;;;;;;4999954;28;20451;-75
2021/04/13 12:49:12;;;;;;;1.60;1.50;;;;;;;;;;5011307;28;20384;-74
2021/04/13 12:51:50;;;;;;;2.10;1.60;;;;;;;;;;5008297;28;20396;-73
2021/04/13 12:54:16;;;;;;;2.25;1.67;;;;;;;;;;5007264;28;20450;-74
2021/04/13 12:56:48;;;;;;;1.80;1.70;;;;;;;;;;5002679;28;20459;-75
2021/04/13 12:59:15;;;;;;;2.20;1.80;;;;;;;;;;4999003;28;20396;-76
2021/04/13 13:01:43;;;;;;;1.70;1.60;;;;;;;;;;5002977;28;20800;-73
2021/04/13 13:04:14;;;;;;;2.38;1.88;;;;;;;;;;4996727;28;20401;-75
2021/04/13 13:06:42;;;;;;;3.10;1.98;;;;;;;;;;5005454;28;20461;-74
2021/04/13 13:09:38;;;;;;;1.73;1.63;;;9.10;99.90;;;;;;5002277;28;20380;-73
2021/04/13 13:12:07;;;;;;;2.90;1.70;;;;;;;;;;5008127;28;20403;-74
2021/04/13 13:14:35;;;;;;;1.70;1.48;;;;;;;;;;5008391;28;20389;-74
2021/04/13 13:17:01;;;;;;;1.85;1.65;;;;;;;;;;4996485;28;20490;-74
2021/04/13 13:19:42;;;;;;;1.98;1.67;;;11.30;99.90;;;;;;5003447;28;20405;-72
2021/04/13 13:22:21;;;;;;;5.03;1.70;;;;;;;;;;5002379;28;20807;-74
2021/04/13 13:24:51;;;;;;;2.17;1.40;;;;;;;;;;5005751;28;20416;-73
2021/04/13 13:27:34;;;;;;;1.80;1.70;;;;;;;;;;4997449;28;20472;-74
2021/04/13 13:30:01;;;;;;;1.70;1.60;;;;;;;;;;5003784;28;20380;-73
2021/04/13 13:32:29;;;;;;;1.70;1.60;;;12.30;99.90;;;;;;4992268;28;20397;-73
2021/04/13 13:34:57;;;;;;;1.70;1.60;;;;;;;;;;5010841;28;20960;-75
2021/04/13 13:37:25;;;;;;;1.80;1.53;;;;;;;;;;4999209;28;20436;-73
2021/04/13 13:39:52;;;;;;;2.90;1.50;;;;;;;;;;5013414;28;20375;-73
2021/04/13 13:42:18;;;;;;;2.70;2.50;;;;;;;;;;5000453;28;20432;-73
2021/04/13 13:44:45;;;;;;;3.67;2.63;;;;;;;;;;5010195;28;20442;-73
2021/04/13 13:47:39;;;;;;;3.50;3.20;;;6.80;99.90;;;;;;5007546;28;20388;-73
2021/04/13 13:50:05;;;;;;;3.40;3.10;;;;;;;;;;5005127;28;20396;-73
2021/04/13 13:52:39;;;;;;;3.93;3.30;;;;;;;;;;5004829;28;20931;-74
2021/04/13 13:55:08;;;;;;;3.97;3.20;;;;;;;;;;5002774;28;20451;-73
2021/04/13 13:57:36;;;;;;;3.80;3.22;;;;;;;;;;4998696;28;20928;-73
2021/04/13 14:00:04;;;;;;;3.42;2.92;;;;;;;;;;4993174;28;20495;-74
2021/04/13 14:02:32;;;;;;;4.22;3.60;;;;;;;;;;5009193;28;20373;-74
2021/04/13 14:05:13;;;;;;;5.20;3.60;;;;;;;;;;5009865;28;20477;-74
2021/04/13 14:07:40;;;;;;;4.88;4.38;;;;;;;;;;4992698;28;20433;-74
2021/04/13 14:10:22;;;;;;;4.75;3.50;;;;;;;;;;4993323;28;20896;-74
2021/04/13 14:12:48;;;;;;;5.07;4.10;;;;;;;;;;5011195;28;20385;-74
2021/04/13 14:15:16;;;;;;;5.57;3.63;;;;;;;;;;5010463;28;20499;-76
2021/04/13 14:17:42;;;;;;;4.93;3.70;;;;;;;;;;4992835;28;20404;-75
2021/04/13 14:20:12;;;;;;;4.63;3.88;;;;;;;;;;5008429;28;20431;-76
2021/04/13 14:22:39;;;;;;;4.10;3.70;;;;;;;;;;5005008;28;20893;-75
2021/04/13 14:25:07;;;;;;;3.47;3.17;;;;;;;;;;5003207;28;20458;-76
2021/04/13 14:27:34;;;;;;;3.30;3.00;;;;;;;;;;4997320;28;20574;-74
2021/04/13 14:30:10;;;;;;;5.13;4.00;;;5.80;99.90;;;;;;5005432;28;20882;-74
2021/04/13 14:32:36;;;;;;;4.20;3.80;;;;;;;;;;4999027;28;20429;-74
2021/04/13 14:35:04;;;;;;;6.30;4.18;;;;;;;;;;5002593;28;20921;-74
2021/04/13 14:37:38;;;;;;;3.70;3.40;;;;;;;;;;4985594;28;20760;-74
2021/04/13 14:40:07;;;;;;;4.10;3.40;;;;;;;;;;5003694;28;20902;-74
2021/04/13 14:42:33;;;;;;;3.95;3.55;;;6.20;99.90;;;;;;4986947;28;20591;-75
2021/04/13 14:45:00;;;;;;;4.65;3.60;;;;;;;;;;5002183;28;20753;-75
2021/04/13 14:47:26;;;;;;;4.05;3.53;;;;;;;;;;4997896;28;20882;-74
2021/04/13 14:49:52;;;;;;;3.75;3.25;;;;;;;;;;5004801;28;20887;-74
2021/04/13 14:52:19;;;;;;;3.40;3.10;;;;;;;;;;5000149;28;20371;-75
2021/04/13 14:54:45;;;;;;;3.50;3.20;;;;;;;;;;4990237;28;20506;-74
2021/04/13 14:57:11;;;;;;;3.85;3.28;;;;;;;;;;4990430;28;20402;-73
2021/04/13 14:59:38;;;;;;;3.97;3.42;;;;;;;;;;5002139;28;20377;-75
2021/04/13 15:02:03;;;;;;;3.28;3.00;;;6.40;99.90;;;;;;5009948;28;20455;-74
2021/04/13 15:04:29;;;;;;;3.07;2.77;;;;;;;;;;5008900;28;20437;-74
2021/04/13 15:06:55;;;;;;;2.47;2.28;;;;;;;;;;5009891;28;20419;-74